Time;durP1;ratioP1;P1;durP2;ratioP2;P2;SDS_P1;SDS_P2;PMS_P1;PMS_P2;Temp;Humidity;BMP_temperature;BMP_pressure;BME280_temperature;BME280_humidity;BME280_pressure;Samples;Min_cycle;Max_cycle;Signal;HPM_P1;HPM_P2
2022/10/30 00:00:45;;;;;;;12.33;7.47;;;;;;;14.18;71.92;99207.41;1799945;79;20996;-41
2022/10/30 00:03:13;;;;;;;13.32;7.67;;;;;;;14.25;71.76;99208.77;1718881;79;20977;-41
2022/10/30 00:05:46;;;;;;;13.45;7.58;;;;;;;14.24;71.66;99209.35;1800320;79;21020;-41
2022/10/30 00:08:16;;;;;;;13.25;7.28;;;;;;;14.21;71.66;99214.81;1773270;79;21185;-41
2022/10/30 00:10:43;;;;;;;15.53;7.17;;;;;;;14.17;71.68;99216.75;1768675;81;21609;-41
2022/10/30 00:13:12;;;;;;;12.10;6.70;;;;;;;14.16;71.69;99217.91;1768308;81;20981;-41
2022/10/30 00:15:39;;;;;;;11.70;7.12;;;;;;;14.21;71.56;99225.13;1768684;81;21025;-41
2022/10/30 00:18:06;;;;;;;13.78;6.95;;;;;;;14.28;71.32;99223.02;1768443;81;20946;-41
2022/10/30 00:20:35;;;;;;;15.43;7.40;;;;;;;14.26;71.06;99222.03;1768344;81;21145;-41
2022/10/30 00:23:03;;;;;;;13.08;7.58;;;;;;;14.23;71.08;99224.76;1703858;82;21265;-41
2022/10/30 00:25:30;;;;;;;13.15;7.15;;;;;;;14.20;71.11;99226.30;1752273;81;21590;-41
2022/10/30 00:27:57;;;;;;;16.00;6.83;;;;;;;14.19;70.98;99223.36;1757283;81;21084;-41
2022/10/30 00:30:24;;;;;;;13.13;7.45;;;;;;;14.24;70.85;99216.75;1740032;82;20993;-41
2022/10/30 00:32:51;;;;;;;13.10;6.78;;;;;;;14.28;70.55;99214.22;1757362;81;22057;-41
2022/10/30 00:35:19;;;;;;;10.32;6.28;;;;;;;14.26;70.25;99208.39;1750401;82;21818;-41
2022/10/30 00:37:46;;;;;;;11.88;6.72;;;;;;;14.22;69.99;99203.52;1749901;81;21517;-41
2022/10/30 00:40:16;;;;;;;10.78;6.60;;;;;;;14.17;69.91;99195.73;1720305;82;20936;-41
2022/10/30 00:42:43;;;;;;;11.05;6.10;;;;;;;14.14;69.79;99199.20;1720511;83;21040;-41
2022/10/30 00:45:13;;;;;;;11.63;6.40;;;;;;;14.17;69.68;99183.45;1720652;82;21211;-41
2022/10/30 00:47:54;;;;;;;12.65;6.50;;;;;;;14.20;69.60;99189.48;1739986;82;21021;-41
2022/10/30 00:50:29;;;;;;;13.85;6.55;;;;;;;14.22;69.41;99193.98;1739981;82;21006;-41
2022/10/30 00:53:10;;;;;;;11.22;5.67;;;;;;;14.19;69.33;99194.73;1738807;82;21630;-41
2022/10/30 00:55:54;;;;;;;13.50;5.75;;;;;;;14.16;69.36;99199.61;1757307;81;21016;-41
2022/10/30 00:58:27;;;;;;;10.70;5.60;;;;;;;14.16;69.34;99202.34;1757199;81;21888;-41
2022/10/30 01:00:56;;;;;;;12.60;6.60;;;;;;;14.20;69.05;99204.48;1750374;82;21015;-41
2022/10/30 01:03:23;;;;;;;12.25;6.30;;;;;;;14.20;69.01;99207.79;1750530;82;22122;-41
2022/10/30 01:05:53;;;;;;;11.30;6.50;;;;;;;14.17;69.04;99205.27;1750381;81;21537;-41
2022/10/30 01:08:21;;;;;;;12.55;5.33;;;;;;;14.16;68.97;99206.42;1750423;82;21075;-41
2022/10/30 01:10:48;;;;;;;12.80;5.55;;;;;;;14.14;68.91;99196.48;1750494;82;21126;-41
2022/10/30 01:13:15;;;;;;;11.60;5.87;;;;;;;14.15;68.94;99195.90;1750322;82;20925;-41
2022/10/30 01:16:02;;;;;;;7.97;5.55;;;;;;;14.19;68.77;99193.95;1750391;81;21007;-41
2022/10/30 01:18:48;;;;;;;16.42;6.28;;;;;;;14.18;68.54;99184.23;1750405;81;20893;-41
2022/10/30 01:21:43;;;;;;;10.03;5.97;;;;;;;14.16;68.57;99190.07;1750458;82;21506;-41
2022/10/30 01:24:32;;;;;;;10.75;5.95;;;;;;;14.14;68.49;99182.06;1748735;81;21231;-41
2022/10/30 01:27:25;;;;;;;13.53;5.97;;;;;;;14.10;68.63;99169.02;1741582;82;20976;-41
2022/10/30 01:30:36;;;;;;;9.13;4.80;;;;;;;14.10;68.57;99158.11;1741564;82;21039;-41
2022/10/30 01:33:31;;;;;;;8.53;5.67;;;;;;;14.12;68.52;99172.93;1741503;82;20960;-41
2022/10/30 01:36:18;;;;;;;12.37;6.00;;;;;;;14.06;68.49;99172.33;1741504;82;21018;-41
2022/10/30 01:38:56;;;;;;;8.98;5.65;;;;;;;13.98;68.71;99187.90;1741684;82;21220;-41
2022/10/30 01:41:23;;;;;;;16.70;5.87;;;;;;;13.94;68.93;99183.03;1741505;82;21080;-41
2022/10/30 01:43:55;;;;;;;11.80;5.45;;;;;;;13.94;69.01;99187.11;1741932;82;21001;-41
2022/10/30 01:46:50;;;;;;;11.78;5.65;;;;;;;13.98;68.88;99178.36;1741794;82;20924;-41
2022/10/30 01:49:33;;;;;;;12.63;5.80;;;;;;;13.98;68.74;99182.45;1741659;82;20929;-41
2022/10/30 01:52:44;;;;;;;9.88;5.95;;;;;;;13.92;68.97;99177.17;1741577;82;23162;-41
2022/10/30 01:55:49;;;;;;;12.05;5.78;;;;;;;13.86;69.18;99188.23;1739475;82;21044;-41
2022/10/30 01:58:31;;;;;;;10.08;5.40;;;;;;;13.86;69.28;99177.34;1741463;82;21064;-41
2022/10/30 02:00:59;;;;;;;9.43;5.83;;;;;;;13.89;69.32;99180.06;1721995;82;21027;-41
2022/10/30 02:03:26;;;;;;;12.00;6.17;;;;;;;13.90;69.24;99176.77;1741672;82;21032;-41
2022/10/30 02:05:53;;;;;;;9.70;6.17;;;;;;;13.91;69.14;99175.60;1741485;82;23108;-41
2022/10/30 02:08:23;;;;;;;15.25;6.05;;;;;;;13.87;69.18;99183.00;1741341;82;21028;-41
2022/10/30 02:10:51;;;;;;;11.75;6.10;;;;;;;13.85;69.29;99194.27;1741562;82;21053;-41
2022/10/30 02:13:20;;;;;;;12.30;5.50;;;;;;;13.89;69.31;99189.61;1740859;82;20972;-41
2022/10/30 02:15:47;;;;;;;11.33;5.70;;;;;;;13.88;69.33;99192.16;1741688;82;20930;-41
2022/10/30 02:18:14;;;;;;;15.48;6.42;;;;;;;13.87;69.44;99189.81;1741452;82;21129;-41
2022/10/30 02:20:41;;;;;;;10.95;5.60;;;;;;;13.82;69.64;99185.52;1741416;82;21488;-41
2022/10/30 02:23:12;;;;;;;12.28;5.92;;;;;;;13.82;69.72;99191.55;1741607;82;20985;-41
2022/10/30 02:25:38;;;;;;;11.22;5.90;;;;;;;13.86;69.66;99196.41;1741633;82;21012;-40
2022/10/30 02:28:05;;;;;;;12.15;6.12;;;;;;;13.91;69.62;99206.94;1741539;82;21024;-41
2022/10/30 02:30:33;;;;;;;12.73;6.45;;;;;;;13.91;69.60;99209.67;1741588;82;21186;-41
2022/10/30 02:33:01;;;;;;;10.03;5.72;;;;;;;13.87;69.64;99215.70;1741475;82;20996;-41
2022/10/30 02:35:30;;;;;;;8.05;5.28;;;;;;;13.85;69.70;99212.56;1741505;82;21068;-41
2022/10/30 02:37:57;;;;;;;10.45;5.67;;;;;;;13.89;69.63;99224.28;1741662;82;20985;-41
2022/10/30 02:40:26;;;;;;;14.50;6.42;;;;;;;13.91;69.56;99226.02;1741699;82;21068;-41
2022/10/30 02:42:54;;;;;;;10.32;5.55;;;;;;;13.88;69.65;99219.41;1741564;82;21522;-41
2022/10/30 02:45:21;;;;;;;8.73;5.42;;;;;;;13.81;69.74;99224.81;1741274;82;21486;-41
2022/10/30 02:47:49;;;;;;;8.88;5.78;;;;;;;13.76;69.88;99231.22;1741403;82;20953;-41
2022/10/30 02:50:16;;;;;;;9.15;5.12;;;;;;;13.73;70.07;99227.91;1741591;82;21534;-41
2022/10/30 02:52:44;;;;;;;10.70;5.70;;;;;;;13.77;69.99;99228.70;1741518;82;21084;-41
2022/10/30 02:55:10;;;;;;;10.15;5.47;;;;;;;13.77;69.86;99228.70;1741352;82;21171;-41
2022/10/30 02:57:39;;;;;;;9.90;5.72;;;;;;;13.72;70.03;99226.34;1741567;82;21542;-41
2022/10/30 03:00:07;;;;;;;12.40;5.90;;;;;;;13.68;70.16;99225.55;1741511;82;21009;-41
2022/10/30 03:02:36;;;;;;;10.60;5.35;;;;;;;13.65;70.23;99227.08;1741435;82;21614;-41
2022/10/30 03:05:04;;;;;;;8.93;5.15;;;;;;;13.64;70.27;99223.40;1741379;82;20985;-41
2022/10/30 03:07:33;;;;;;;10.28;5.30;;;;;;;13.66;70.25;99219.11;1741586;82;21208;-41
2022/10/30 03:10:00;;;;;;;10.25;5.35;;;;;;;13.66;70.20;99218.33;1741286;82;21510;-41
2022/10/30 03:12:26;;;;;;;12.78;5.90;;;;;;;13.63;70.29;99216.38;1741437;82;20885;-41
2022/10/30 03:14:54;;;;;;;11.55;5.35;;;;;;;13.62;70.28;99220.27;1741480;82;20994;-41
2022/10/30 03:17:21;;;;;;;7.92;4.72;;;;;;;13.63;70.18;99221.83;1741339;82;21068;-41
2022/10/30 03:19:50;;;;;;;12.33;5.40;;;;;;;13.65;70.11;99219.52;1741592;82;21157;-41
2022/10/30 03:22:18;;;;;;;10.25;5.62;;;;;;;13.65;70.02;99220.88;1741187;82;21039;-41
2022/10/30 03:24:45;;;;;;;7.60;5.15;;;;;;;13.61;70.22;99224.14;1742266;82;21025;-41
2022/10/30 03:27:12;;;;;;;9.40;5.17;;;;;;;13.61;70.24;99235.04;1749357;82;21016;-41
2022/10/30 03:29:40;;;;;;;13.83;4.92;;;;;;;13.61;70.22;99242.63;1803011;79;21033;-41
2022/10/30 03:32:09;;;;;;;10.48;5.83;;;;;;;13.61;70.13;99236.41;1802676;79;21123;-41
2022/10/30 03:34:38;;;;;;;10.68;5.97;;;;;;;13.64;70.07;99237.80;1801551;79;20949;-41
2022/10/30 03:38:55;;;;;;;10.70;5.03;;;;;;;13.69;69.87;99227.12;1830062;78;22653;-41
2022/10/30 03:41:24;;;;;;;16.25;5.55;;;;;;;13.52;70.05;99231.31;1803002;79;21013;-41
2022/10/30 03:43:52;;;;;;;10.98;4.78;;;;;;;13.53;70.10;99238.33;1803159;79;21223;-41
2022/10/30 03:46:18;;;;;;;8.83;5.15;;;;;;;13.54;70.14;99241.25;1803108;79;21488;-41
2022/10/30 03:48:50;;;;;;;9.50;4.65;;;;;;;13.56;70.07;99242.21;1803107;79;20950;-41
2022/10/30 03:51:16;;;;;;;7.92;4.92;;;;;;;13.54;70.05;99239.89;1803310;79;21002;-41
2022/10/30 03:53:45;;;;;;;7.50;3.80;;;;;;;13.51;70.06;99238.52;1803455;79;20954;-41
2022/10/30 03:56:13;;;;;;;11.30;4.70;;;;;;;13.51;69.94;99242.61;1803076;79;21203;-41
2022/10/30 03:58:41;;;;;;;7.75;4.70;;;;;;;13.52;69.96;99240.06;1802294;79;21736;-41
2022/10/30 04:01:09;;;;;;;8.08;4.50;;;;;;;13.57;69.63;99239.70;1803143;79;21007;-41
2022/10/30 04:03:38;;;;;;;11.68;5.70;;;;;;;13.60;69.27;99241.09;1803098;79;21031;-41
2022/10/30 04:06:06;;;;;;;11.35;4.75;;;;;;;13.59;69.21;99242.83;1803150;79;21082;-41
2022/10/30 04:08:34;;;;;;;10.88;4.83;;;;;;;13.58;68.97;99241.27;1803194;79;21146;-41
2022/10/30 04:11:01;;;;;;;11.63;4.50;;;;;;;13.54;68.91;99237.17;1803236;79;22015;-41
2022/10/30 04:13:30;;;;;;;10.00;4.17;;;;;;;13.51;68.44;99235.19;1803160;79;20947;-41
2022/10/30 04:15:57;;;;;;;7.05;4.15;;;;;;;13.59;68.53;99240.11;1802822;79;21491;-41
2022/10/30 04:18:24;;;;;;;7.87;4.40;;;;;;;13.62;68.11;99233.88;1803019;79;21021;-41
2022/10/30 04:20:53;;;;;;;7.37;4.30;;;;;;;13.62;67.60;99236.03;1803122;79;21212;-41
2022/10/30 04:23:21;;;;;;;10.60;4.80;;;;;;;13.61;67.75;99237.77;1802995;79;21556;-41
2022/10/30 04:25:49;;;;;;;7.80;4.00;;;;;;;13.59;67.40;99236.02;1803342;79;20914;-41
2022/10/30 04:28:16;;;;;;;11.83;4.08;;;;;;;13.61;67.46;99243.21;1803252;79;20925;-41
2022/10/30 04:30:45;;;;;;;7.28;3.90;;;;;;;13.66;67.33;99240.13;1803111;79;21041;-41
2022/10/30 04:33:13;;;;;;;5.60;3.27;;;;;;;13.68;66.97;99233.14;1803202;79;21140;-41
2022/10/30 04:35:42;;;;;;;11.53;4.30;;;;;;;13.66;66.19;99245.57;1803034;79;21021;-41
2022/10/30 04:38:14;;;;;;;9.28;3.90;;;;;;;13.64;65.74;99243.83;1796221;79;20974;-41
2022/10/30 04:40:43;;;;;;;7.40;3.87;;;;;;;13.60;65.56;99241.67;1792058;80;20981;-41
2022/10/30 04:43:12;;;;;;;6.15;3.55;;;;;;;13.57;65.69;99247.87;1792234;79;20973;-41
2022/10/30 04:45:40;;;;;;;7.12;3.87;;;;;;;13.56;65.85;99247.66;1792041;80;21146;-41
2022/10/30 04:48:13;;;;;;;9.25;3.90;;;;;;;13.56;65.17;99247.66;1791988;80;20958;-41
2022/10/30 04:50:42;;;;;;;5.53;3.62;;;;;;;13.59;64.78;99253.15;1791534;79;21014;-41
2022/10/30 04:53:16;;;;;;;7.55;3.62;;;;;;;13.60;64.83;99251.20;1791545;80;21026;-41
2022/10/30 04:55:45;;;;;;;9.85;3.42;;;;;;;13.57;64.52;99247.28;1786384;80;20962;-41
2022/10/30 04:58:12;;;;;;;7.72;3.92;;;;;;;13.55;63.75;99247.48;1791630;80;21136;-41
2022/10/30 05:00:41;;;;;;;7.22;3.72;;;;;;;13.49;63.72;99253.30;1791545;80;21009;-41
2022/10/30 05:03:21;;;;;;;7.58;3.72;;;;;;;13.43;63.92;99252.08;1791530;80;20958;-41
2022/10/30 05:05:58;;;;;;;7.87;3.37;;;;;;;13.38;64.00;99252.44;1791519;80;20934;-41
2022/10/30 05:08:25;;;;;;;6.60;3.37;;;;;;;13.34;64.54;99254.37;1791491;80;21027;-41
2022/10/30 05:10:53;;;;;;;6.47;3.17;;;;;;;13.33;64.53;99258.83;1791427;80;21133;-41
2022/10/30 05:13:21;;;;;;;9.03;4.17;;;;;;;13.29;64.40;99258.81;1791701;80;21495;-41
2022/10/30 05:15:50;;;;;;;7.37;3.58;;;;;;;13.29;64.63;99264.25;1791567;80;20962;-41
2022/10/30 05:18:16;;;;;;;8.05;3.58;;;;;;;13.28;64.94;99261.91;1791600;80;20961;-41
2022/10/30 05:20:46;;;;;;;6.28;3.45;;;;;;;13.27;63.59;99267.92;1791591;80;21029;-41
2022/10/30 05:23:15;;;;;;;5.85;3.22;;;;;;;13.24;63.29;99266.55;1791728;80;20990;-41
2022/10/30 05:25:41;;;;;;;5.08;3.00;;;;;;;13.20;62.85;99271.98;1791480;80;21515;-41
2022/10/30 05:28:08;;;;;;;6.95;3.35;;;;;;;13.18;62.73;99270.20;1791546;80;21490;-41
2022/10/30 05:30:37;;;;;;;7.12;3.20;;;;;;;13.22;62.87;99276.45;1790801;79;21030;-41
2022/10/30 05:33:09;;;;;;;6.17;2.95;;;;;;;13.22;63.06;99281.89;1791385;79;21033;-41
2022/10/30 05:35:37;;;;;;;6.15;3.10;;;;;;;13.23;63.43;99279.38;1791824;80;21807;-41
2022/10/30 05:38:06;;;;;;;7.55;3.47;;;;;;;13.24;63.60;99297.86;1798324;79;20978;-41
2022/10/30 05:40:33;;;;;;;6.65;3.17;;;;;;;13.19;63.86;99300.35;1808392;79;21498;-41
2022/10/30 05:43:01;;;;;;;8.25;3.25;;;;;;;13.16;63.71;99305.20;1808556;79;21538;-41
2022/10/30 05:45:28;;;;;;;5.62;3.08;;;;;;;13.15;64.08;99305.57;1808393;79;20937;-41
2022/10/30 05:47:58;;;;;;;8.85;3.27;;;;;;;13.17;63.65;99310.83;1808396;79;21228;-41
2022/10/30 05:50:26;;;;;;;7.05;2.90;;;;;;;13.19;63.57;99307.16;1808739;79;21070;-41
2022/10/30 05:53:01;;;;;;;7.08;3.30;;;;;;;13.22;63.45;99311.05;1805180;79;21522;-41
2022/10/30 05:55:27;;;;;;;5.83;3.17;;;;;;;13.22;63.47;99313.77;1808687;79;21040;-41
2022/10/30 05:58:09;;;;;;;5.22;2.80;;;;;;;13.17;63.45;99312.19;1806777;79;21025;-41
2022/10/30 06:00:39;;;;;;;;;;;;;;;13.20;63.29;99319.62;1811097;79;21224;-41
2022/10/30 06:03:10;;;;;;;6.85;2.83;;;;;;;13.18;63.18;99326.58;1808710;78;20546;-41
2022/10/30 06:05:46;;;;;;;6.15;2.70;;;;;;;13.06;63.13;99320.84;1808530;78;20964;-41
2022/10/30 06:08:15;;;;;;;5.00;2.70;;;;;;;13.08;62.80;99322.59;1808423;79;21081;-41
2022/10/30 06:10:43;;;;;;;5.22;2.45;;;;;;;13.11;62.31;99321.88;1808381;79;21008;-41
2022/10/30 06:13:12;;;;;;;8.68;2.70;;;;;;;13.12;62.22;99327.50;1807987;79;23104;-41
2022/10/30 06:16:00;;;;;;;6.40;2.77;;;;;;;13.12;62.38;99324.78;1808206;78;20930;-41
2022/10/30 06:18:29;;;;;;;6.05;2.60;;;;;;;13.11;62.15;99327.88;1805619;79;21491;-41
2022/10/30 06:20:58;;;;;;;4.60;2.65;;;;;;;13.10;62.13;99328.45;1806773;79;20996;-41
2022/10/30 06:23:26;;;;;;;6.20;2.45;;;;;;;13.10;62.29;99335.83;1794764;79;21037;-41
2022/10/30 06:25:58;;;;;;;5.37;2.40;;;;;;;13.12;62.20;99337.64;1807195;79;21309;-41
2022/10/30 06:28:27;;;;;;;4.03;2.40;;;;;;;13.09;61.71;99336.41;1803164;79;21016;-41
2022/10/30 06:30:54;;;;;;;5.47;2.30;;;;;;;13.12;61.58;99333.55;1808346;79;20981;-41
2022/10/30 06:33:21;;;;;;;6.03;2.55;;;;;;;13.14;61.33;99336.09;1808293;79;21622;-41
2022/10/30 06:35:50;;;;;;;7.07;2.70;;;;;;;13.15;61.28;99337.66;1808805;78;21866;-41
2022/10/30 06:38:18;;;;;;;4.10;2.20;;;;;;;13.14;61.23;99334.73;1802074;79;21130;-41
2022/10/30 06:40:48;;;;;;;5.20;2.30;;;;;;;13.13;61.14;99342.69;1791334;80;20922;-41
2022/10/30 06:43:20;;;;;;;4.83;2.30;;;;;;;13.13;60.90;99333.16;1729426;79;21101;-41
2022/10/30 06:45:50;;;;;;;6.45;2.20;;;;;;;13.15;61.19;99328.13;1791036;79;21519;-41
2022/10/30 06:48:17;;;;;;;6.42;2.37;;;;;;;13.19;61.21;99329.52;1791482;80;21020;-41
2022/10/30 06:50:55;;;;;;;8.10;2.40;;;;;;;13.21;60.86;99326.63;1791206;79;21082;-41
2022/10/30 06:53:22;;;;;;;6.85;2.02;;;;;;;13.21;60.93;99330.72;1771344;80;20938;-41
2022/10/30 06:56:02;;;;;;;6.90;2.52;;;;;;;13.24;60.10;99327.22;1791453;80;21013;-41
2022/10/30 06:58:47;;;;;;;5.28;2.12;;;;;;;13.25;59.80;99331.52;1791367;80;21493;-41
2022/10/30 07:01:32;;;;;;;8.45;2.45;;;;;;;13.20;59.72;99338.67;1791439;80;21503;-41
2022/10/30 07:04:16;;;;;;;5.00;1.85;;;;;;;13.14;59.86;99329.28;1791355;79;21053;-41
2022/10/30 07:06:45;;;;;;;10.23;2.73;;;;;;;13.11;59.65;99335.49;1791587;80;21557;-41
2022/10/30 07:09:12;;;;;;;6.53;2.37;;;;;;;13.09;60.26;99343.21;1791442;80;20985;-41
2022/10/30 07:11:44;;;;;;;5.65;1.90;;;;;;;13.06;59.92;99346.12;1791391;80;21540;-41
2022/10/30 07:14:15;;;;;;;4.08;1.82;;;;;;;13.07;60.15;99338.70;1782473;80;21021;-41
2022/10/30 07:16:45;;;;;;;5.00;2.10;;;;;;;13.08;60.04;99343.00;1790751;79;20938;-41
2022/10/30 07:19:12;;;;;;;7.83;2.50;;;;;;;13.11;59.98;99336.85;1791331;80;20899;-41
2022/10/30 07:21:42;;;;;;;4.87;1.85;;;;;;;13.12;60.10;99335.67;1786172;80;21046;-41
2022/10/30 07:24:09;;;;;;;7.05;1.82;;;;;;;13.17;60.40;99339.41;1791240;80;21528;-41
2022/10/30 07:26:41;;;;;;;7.05;2.02;;;;;;;13.25;59.90;99338.33;1789970;79;20941;-41
2022/10/30 07:29:25;;;;;;;6.60;1.52;;;;;;;13.36;59.74;99344.61;1789924;79;21269;-41
2022/10/30 07:32:12;;;;;;;4.50;1.75;;;;;;;13.44;59.65;99339.44;1791435;80;21555;-41
2022/10/30 07:34:53;;;;;;;4.15;1.70;;;;;;;13.48;58.75;99344.32;1742500;79;20926;-41
2022/10/30 07:37:19;;;;;;;3.75;1.25;;;;;;;13.46;58.32;99337.09;1791334;80;21020;-41
2022/10/30 07:39:54;;;;;;;6.25;2.00;;;;;;;13.45;58.65;99330.11;1781419;79;21056;-40
2022/10/30 07:42:23;;;;;;;6.33;2.00;;;;;;;13.48;59.07;99335.37;1795409;79;22126;-41
2022/10/30 07:45:07;;;;;;;8.15;2.00;;;;;;;13.48;58.71;99329.34;1733855;79;21541;-41
2022/10/30 07:47:43;;;;;;;6.30;1.60;;;;;;;13.51;58.88;99327.79;1799344;79;20954;-41
2022/10/30 07:50:17;;;;;;;4.60;1.65;;;;;;;13.53;58.56;99332.29;1799520;79;20977;-41
2022/10/30 07:52:44;;;;;;;3.72;1.62;;;;;;;13.58;58.98;99333.88;1799842;79;21026;-41
2022/10/30 07:55:11;;;;;;;5.35;1.47;;;;;;;13.62;58.70;99330.59;1799828;79;21235;-41
2022/10/30 07:57:44;;;;;;;4.97;2.02;;;;;;;13.64;58.25;99331.00;1799686;79;20958;-41
2022/10/30 08:00:14;;;;;;;7.12;1.87;;;;;;;13.59;58.38;99328.05;1794938;79;20982;-41
2022/10/30 08:02:43;;;;;;;4.53;1.47;;;;;;;13.56;58.09;99330.73;1799700;78;20941;-41
2022/10/30 08:05:15;;;;;;;3.55;1.65;;;;;;;13.53;57.90;99326.84;1769310;79;21010;-41
2022/10/30 08:07:51;;;;;;;6.62;1.70;;;;;;;13.52;58.25;99327.21;1797562;79;23151;-41
2022/10/30 08:10:19;;;;;;;3.45;1.45;;;;;;;13.51;57.98;99318.86;1799677;79;20961;-41
2022/10/30 08:12:47;;;;;;;6.00;1.75;;;;;;;13.51;58.25;99322.95;1799799;79;20958;-41
2022/10/30 08:15:15;;;;;;;5.15;1.60;;;;;;;13.51;58.21;99329.76;1799687;79;21027;-41
2022/10/30 08:17:47;;;;;;;5.22;1.72;;;;;;;13.51;58.36;99342.02;1799991;79;21056;-41
2022/10/30 08:20:18;;;;;;;6.00;1.95;;;;;;;13.48;58.07;99338.87;1799685;79;20997;-41
2022/10/30 08:22:50;;;;;;;7.03;2.25;;;;;;;13.49;58.30;99338.30;1799719;79;20922;-41
2022/10/30 08:25:21;;;;;;;4.80;1.95;;;;;;;13.48;58.10;99336.15;1799891;79;21777;-41
2022/10/30 08:27:54;;;;;;;6.37;1.50;;;;;;;13.48;58.16;99339.45;1800011;79;21005;-41
2022/10/30 08:30:23;;;;;;;7.83;2.00;;;;;;;13.51;58.64;99346.10;1799958;79;20946;-41
2022/10/30 08:32:51;;;;;;;6.20;2.15;;;;;;;13.55;58.93;99342.23;1769438;79;21066;-41
2022/10/30 08:35:37;;;;;;;6.50;1.80;;;;;;;13.61;58.64;99348.08;1799897;79;20961;-41
2022/10/30 08:38:04;;;;;;;5.20;1.72;;;;;;;13.63;58.34;99344.41;1799935;79;21086;-42
2022/10/30 08:40:32;;;;;;;5.87;1.52;;;;;;;13.67;58.75;99347.36;1799989;79;21500;-41
2022/10/30 08:43:03;;;;;;;6.90;2.08;;;;;;;13.71;58.52;99351.45;1799744;79;21017;-41
2022/10/30 08:45:33;;;;;;;6.12;1.90;;;;;;;13.71;57.75;99354.19;1800019;79;21213;-41
2022/10/30 08:48:05;;;;;;;4.15;1.55;;;;;;;13.67;57.57;99350.66;1798058;79;20980;-41
2022/10/30 08:50:34;;;;;;;;;;;;;;;13.64;58.14;99354.94;1802559;78;21025;-41
2022/10/30 08:53:02;;;;;;;5.22;1.98;;;;;;;13.63;57.28;99353.37;1799926;79;20194;-41
2022/10/30 08:55:31;;;;;;;6.05;2.02;;;;;;;13.57;57.95;99343.20;1800023;79;20991;-41
2022/10/30 08:57:59;;;;;;;;;;;;;;;13.62;58.02;99344.99;1802629;79;21113;-41
2022/10/30 09:00:26;;;;;;;4.87;2.00;;;;;;;13.64;57.46;99347.34;1799725;78;20110;-41
2022/10/30 09:03:11;;;;;;;7.15;2.12;;;;;;;13.54;58.06;99350.20;1799905;79;20985;-41
2022/10/30 09:05:52;;;;;;;5.62;1.95;;;;;;;13.57;58.05;99346.70;1795669;79;21004;-40
2022/10/30 09:08:25;;;;;;;8.83;1.92;;;;;;;13.63;57.46;99338.39;1775072;79;20965;-41
2022/10/30 09:11:00;;;;;;;7.10;2.20;;;;;;;13.67;57.52;99343.85;1799959;79;21236;-41
2022/10/30 09:13:29;;;;;;;4.67;1.95;;;;;;;13.72;57.91;99339.41;1799837;79;20965;-41
2022/10/30 09:16:01;;;;;;;3.02;1.50;;;;;;;13.75;57.57;99339.42;1799901;79;20980;-41
2022/10/30 09:18:28;;;;;;;6.15;2.02;;;;;;;13.77;57.73;99332.23;1799785;79;21080;-41
2022/10/30 09:20:57;;;;;;;3.45;1.50;;;;;;;13.77;57.53;99338.47;1799762;79;21507;-41
2022/10/30 09:23:24;;;;;;;5.80;1.80;;;;;;;13.82;57.38;99337.33;1800016;79;21562;-41
2022/10/30 09:25:56;;;;;;;3.45;1.70;;;;;;;13.83;57.43;99332.08;1799147;79;21468;-41
2022/10/30 09:28:27;;;;;;;8.25;2.27;;;;;;;13.84;57.54;99333.65;1764730;79;21652;-41
2022/10/30 09:31:03;;;;;;;6.35;1.80;;;;;;;13.86;57.77;99336.75;1749946;79;21018;-41
2022/10/30 09:33:30;;;;;;;4.30;1.70;;;;;;;13.89;58.09;99340.86;1799973;79;20918;-41
2022/10/30 09:36:15;;;;;;;6.83;1.98;;;;;;;13.91;57.61;99335.03;1799888;79;21186;-41
2022/10/30 09:38:42;;;;;;;3.50;1.40;;;;;;;13.90;56.66;99338.34;1799558;79;22538;-41
2022/10/30 09:41:43;;;;;;;5.47;1.98;;;;;;;13.93;56.97;99338.17;1797271;79;20997;-41
2022/10/30 09:44:32;;;;;;;5.95;1.87;;;;;;;13.96;57.01;99337.39;1797247;79;20997;-41
2022/10/30 09:47:19;;;;;;;8.70;2.10;;;;;;;13.99;57.46;99339.34;1797295;79;21467;-41
2022/10/30 09:50:14;;;;;;;6.28;2.00;;;;;;;13.99;57.17;99338.59;1797570;79;21241;-41
2022/10/30 09:53:09;;;;;;;8.50;2.33;;;;;;;13.95;56.64;99345.36;1797328;79;21562;-41
2022/10/30 09:55:48;;;;;;;5.58;1.60;;;;;;;13.87;56.52;99341.05;1797334;79;21025;-41
2022/10/30 09:58:36;;;;;;;5.87;1.90;;;;;;;13.83;57.08;99335.59;1797245;79;21040;-41
2022/10/30 10:01:23;;;;;;;7.30;2.17;;;;;;;13.85;57.55;99337.34;1797377;79;21029;-41
2022/10/30 10:04:32;;;;;;;4.95;1.98;;;;;;;13.84;57.04;99333.07;1795878;79;21069;-41
2022/10/30 10:07:30;;;;;;;3.58;1.60;;;;;;;13.81;57.21;99330.30;1793496;79;21516;-41
2022/10/30 10:10:08;;;;;;;6.12;1.92;;;;;;;13.76;57.23;99330.09;1796051;79;21539;-41
2022/10/30 10:12:54;;;;;;;3.12;1.90;;;;;;;13.73;57.27;99327.35;1797360;79;21584;-41
2022/10/30 10:15:48;;;;;;;4.03;2.10;;;;;;;13.71;57.25;99328.30;1797295;79;21471;-41
2022/10/30 10:18:22;;;;;;;6.40;1.95;;;;;;;13.72;57.50;99338.05;1797342;79;21210;-41
2022/10/30 10:20:54;;;;;;;4.10;1.77;;;;;;;13.73;57.78;99341.76;1797451;79;21496;-41
2022/10/30 10:23:32;;;;;;;7.47;2.47;;;;;;;13.74;56.65;99334.37;1797295;79;20926;-41
2022/10/30 10:26:06;;;;;;;4.15;1.80;;;;;;;13.72;56.74;99334.73;1797417;79;21005;-41
2022/10/30 10:28:59;;;;;;;7.22;1.95;;;;;;;13.72;56.48;99333.38;1791605;78;20984;-41
2022/10/30 10:31:54;;;;;;;5.42;1.80;;;;;;;13.71;56.89;99335.11;1783356;79;21460;-41
2022/10/30 10:34:55;;;;;;;4.85;1.55;;;;;;;13.71;57.37;99335.11;1783280;80;21027;-41
2022/10/30 10:37:57;;;;;;;4.97;1.75;;;;;;;13.74;57.72;99338.45;1783145;80;20928;-41
2022/10/30 10:41:11;;;;;;;7.95;1.80;;;;;;;13.76;57.26;99337.48;1793463;79;21584;-41
2022/10/30 10:44:17;;;;;;;8.35;1.85;;;;;;;13.73;57.60;99334.95;1798054;79;21534;-41
2022/10/30 10:47:11;;;;;;;6.62;2.30;;;;;;;13.70;57.61;99330.84;1797939;79;21117;-41
2022/10/30 10:50:03;;;;;;;5.35;1.98;;;;;;;13.69;57.58;99326.55;1743080;79;21026;-41
2022/10/30 10:52:35;;;;;;;6.75;2.20;;;;;;;13.66;57.82;99331.38;1797842;79;20920;-41
2022/10/30 10:55:06;;;;;;;9.38;2.27;;;;;;;13.60;57.91;99333.71;1796934;79;21070;-41
2022/10/30 10:57:36;;;;;;;5.42;2.08;;;;;;;13.59;58.16;99327.27;1769017;79;21063;-41
2022/10/30 11:00:16;;;;;;;6.35;2.27;;;;;;;13.58;58.42;99327.84;1798168;79;21063;-41
2022/10/30 11:03:20;;;;;;;5.55;2.52;;;;;;;13.59;58.85;99327.27;1797791;79;21578;-41
2022/10/30 11:05:57;;;;;;;6.70;2.00;;;;;;;13.59;58.93;99323.19;1797927;79;20928;-41
2022/10/30 11:08:28;;;;;;;8.53;2.20;;;;;;;13.57;58.85;99315.96;1797829;79;20948;-41
2022/10/30 11:11:04;;;;;;;7.03;2.42;;;;;;;13.59;58.89;99315.80;1798165;79;20967;-41
2022/10/30 11:13:36;;;;;;;7.03;2.10;;;;;;;13.65;58.83;99313.50;1797758;79;20968;-41
2022/10/30 11:16:38;;;;;;;4.58;2.00;;;;;;;13.66;58.33;99306.86;1797007;79;21045;-41
2022/10/30 11:19:08;;;;;;;5.83;2.15;;;;;;;13.71;58.02;99307.87;1797925;79;20992;-41
2022/10/30 11:21:45;;;;;;;4.80;1.70;;;;;;;13.73;57.99;99302.83;1798141;79;21050;-41
2022/10/30 11:24:33;;;;;;;6.65;1.82;;;;;;;13.78;57.73;99299.75;1798075;79;21524;-41
2022/10/30 11:27:25;;;;;;;3.58;1.80;;;;;;;13.81;57.38;99298.97;1798085;79;21023;-41
2022/10/30 11:29:58;;;;;;;6.20;2.10;;;;;;;13.90;57.68;99296.09;1770935;79;21598;-41
2022/10/30 11:32:32;;;;;;;5.75;2.02;;;;;;;13.94;57.19;99294.77;1798052;79;21011;-41
2022/10/30 11:35:12;;;;;;;4.28;1.80;;;;;;;13.97;56.77;99289.91;1797903;79;21330;-41
2022/10/30 11:37:40;;;;;;;;;;;;;;;14.00;56.66;99291.85;1800655;79;21834;-41
2022/10/30 11:40:15;;;;;;;8.85;2.20;;;;;;;14.05;56.77;99288.75;1786577;79;21241;-41
2022/10/30 11:42:58;;;;;;;5.45;1.98;;;;;;;14.02;56.94;99284.08;1772596;81;20984;-41
2022/10/30 11:45:31;;;;;;;6.87;2.37;;;;;;;14.09;56.73;99288.18;1772599;81;20996;-41
2022/10/30 11:47:59;;;;;;;5.40;1.80;;;;;;;14.22;56.61;99282.59;1772577;81;21008;-41
2022/10/30 11:50:30;;;;;;;4.22;2.05;;;;;;;14.40;56.43;99289.48;1772637;81;21628;-41
2022/10/30 11:53:02;;;;;;;3.65;1.80;;;;;;;14.53;55.62;99290.66;1772610;81;21098;-41
2022/10/30 11:55:39;;;;;;;7.15;2.15;;;;;;;14.55;54.87;99293.02;1772526;81;21546;-41
2022/10/30 11:58:10;;;;;;;8.65;2.10;;;;;;;14.54;55.26;99290.09;1772519;80;20968;-41
2022/10/30 12:00:39;;;;;;;6.62;1.80;;;;;;;14.50;54.80;99287.94;1772807;81;20964;-41
2022/10/30 12:03:15;;;;;;;5.45;1.90;;;;;;;14.46;54.95;99287.16;1772728;81;21545;-41